createdAt,value
2019-02-12T00:00:24.965Z,69.56
2019-02-12T00:02:55.073Z,69.57
2019-02-12T00:05:24.597Z,69.59
2019-02-12T00:07:53.916Z,69.74
2019-02-12T00:10:23.250Z,70.00
2019-02-12T00:12:53.612Z,70.03
2019-02-12T00:15:22.972Z,70.06
2019-02-12T00:17:52.368Z,69.84
2019-02-12T00:20:21.730Z,70.35
2019-02-12T00:22:51.092Z,70.30
2019-02-12T00:25:20.488Z,69.88
2019-02-12T00:27:49.816Z,69.69
2019-02-12T00:30:19.159Z,69.47
2019-02-12T00:32:48.499Z,69.71
2019-02-12T00:35:17.842Z,69.37
2019-02-12T00:37:47.167Z,69.66
2019-02-12T00:40:16.583Z,68.86
2019-02-12T00:42:46.052Z,69.11
2019-02-12T00:45:15.394Z,69.01
2019-02-12T00:47:44.720Z,68.58
2019-02-12T00:50:14.136Z,67.99
2019-02-12T00:52:43.584Z,68.18
2019-02-12T00:55:12.891Z,67.67
2019-02-12T00:57:42.236Z,67.45
2019-02-12T01:00:13.480Z,67.38
2019-02-12T01:02:42.798Z,67.42
2019-02-12T01:05:12.083Z,67.62
2019-02-12T01:07:41.416Z,67.44
2019-02-12T01:10:10.988Z,67.72
2019-02-12T01:12:40.384Z,67.24
2019-02-12T01:15:12.536Z,67.57
2019-02-12T01:17:41.844Z,67.32
2019-02-12T01:20:12.856Z,67.34
2019-02-12T01:22:42.240Z,67.16
2019-02-12T01:25:13.069Z,66.37
2019-02-12T01:27:43.306Z,66.89
2019-02-12T01:30:16.867Z,67.06
2019-02-12T01:32:45.059Z,66.91
2019-02-12T01:35:14.462Z,66.93
2019-02-12T01:37:43.867Z,67.13
2019-02-12T01:40:14.995Z,66.94
2019-02-12T01:42:44.326Z,66.65
2019-02-12T01:45:14.257Z,66.42
2019-02-12T01:47:43.601Z,65.97
2019-02-12T01:50:15.033Z,66.64
2019-02-12T01:52:44.504Z,66.91
2019-02-12T01:55:13.808Z,66.73
2019-02-12T01:57:43.140Z,67.12
2019-02-12T02:00:14.797Z,68.04
2019-02-12T02:02:44.527Z,67.52
2019-02-12T02:05:13.856Z,66.78
2019-02-12T02:07:43.187Z,66.90
2019-02-12T02:10:16.325Z,67.43
2019-02-12T02:12:45.764Z,67.47
2019-02-12T02:15:15.361Z,67.49
2019-02-12T02:17:44.835Z,67.18
2019-02-12T02:20:14.788Z,66.65
2019-02-12T02:22:44.219Z,67.42
2019-02-12T02:25:14.436Z,66.88
2019-02-12T02:27:43.804Z,67.25
2019-02-12T02:30:14.502Z,66.44
2019-02-12T02:32:43.788Z,66.70
2019-02-12T02:35:13.144Z,66.84
2019-02-12T02:37:42.493Z,67.16
2019-02-12T02:40:11.839Z,66.88
2019-02-12T02:42:41.183Z,67.30
2019-02-12T02:45:11.168Z,66.57
2019-02-12T02:47:40.508Z,66.57
2019-02-12T02:50:10.277Z,66.40
2019-02-12T02:52:39.574Z,66.85
2019-02-12T02:55:09.032Z,66.79
2019-02-12T02:57:38.339Z,67.13
2019-02-12T03:00:08.683Z,66.53
2019-02-12T03:02:38.042Z,66.94
2019-02-12T03:05:09.625Z,67.17
2019-02-12T03:07:38.928Z,67.51
2019-02-12T03:10:08.707Z,67.24
2019-02-12T03:12:38.017Z,67.09
2019-02-12T03:15:08.736Z,67.00
2019-02-12T03:17:38.072Z,67.09
2019-02-12T03:20:09.603Z,67.01
2019-02-12T03:22:38.869Z,66.64
2019-02-12T03:25:08.717Z,66.40
2019-02-12T03:27:38.249Z,67.04
2019-02-12T03:30:08.476Z,66.88
2019-02-12T03:32:37.772Z,67.09
2019-02-12T03:35:08.176Z,66.97
2019-02-12T03:37:37.522Z,66.59
2019-02-12T03:40:08.553Z,67.48
2019-02-12T03:42:37.883Z,67.28
2019-02-12T03:45:07.887Z,67.27
2019-02-12T03:47:37.232Z,66.74
2019-02-12T03:50:07.541Z,66.72
2019-02-12T03:52:36.895Z,66.71
2019-02-12T03:55:07.243Z,66.92
2019-02-12T03:57:36.562Z,66.80
2019-02-12T04:00:06.819Z,66.61
2019-02-12T04:05:38.072Z,66.69
2019-02-12T04:08:07.778Z,66.58
2019-02-12T04:10:37.062Z,67.28
2019-02-12T04:13:06.454Z,67.19
2019-02-12T04:15:35.723Z,67.11
2019-02-12T04:18:05.001Z,67.10
2019-02-12T04:20:34.347Z,67.09
2019-02-12T04:23:03.823Z,67.19
2019-02-12T04:25:33.090Z,67.24
2019-02-12T04:28:02.378Z,66.98
2019-02-12T04:30:32.185Z,67.02
2019-02-12T04:33:02.157Z,68.18
2019-02-12T04:35:31.449Z,68.36
2019-02-12T04:38:01.683Z,68.09
2019-02-12T04:40:30.971Z,68.54
2019-02-12T04:43:00.375Z,68.02
2019-02-12T04:45:29.858Z,68.26
2019-02-12T04:47:59.695Z,67.92
2019-02-12T04:50:29.030Z,67.82
2019-02-12T04:52:59.265Z,68.11
2019-02-12T04:55:28.649Z,67.92
2019-02-12T04:57:58.515Z,67.44
2019-02-12T05:00:27.930Z,67.44
2019-02-12T05:02:57.340Z,67.63
2019-02-12T05:05:26.755Z,67.51
2019-02-12T05:07:58.864Z,67.81
2019-02-12T05:10:31.445Z,66.98
2019-02-12T05:13:00.766Z,67.49
2019-02-12T05:15:30.153Z,67.48
2019-02-12T05:17:59.484Z,67.31
2019-02-12T05:20:28.820Z,67.41
2019-02-12T05:22:58.774Z,67.55
2019-02-12T05:25:29.177Z,67.96
2019-02-12T05:27:58.535Z,68.02
2019-02-12T05:30:27.856Z,68.01
2019-02-12T05:32:57.183Z,68.38
2019-02-12T05:35:26.560Z,67.88
2019-02-12T05:37:55.935Z,68.30
2019-02-12T05:40:25.234Z,68.03
2019-02-12T05:42:54.683Z,67.81
2019-02-12T05:45:23.983Z,67.61
2019-02-12T05:47:53.337Z,68.26
2019-02-12T05:50:22.575Z,67.99
2019-02-12T05:52:54.521Z,67.87
2019-02-12T05:55:21.241Z,68.01
2019-02-12T05:57:50.564Z,68.13
2019-02-12T06:00:20.450Z,67.74
2019-02-12T06:02:50.271Z,67.90
2019-02-12T06:05:27.431Z,68.01
2019-02-12T06:07:57.371Z,67.75
2019-02-12T06:10:26.825Z,67.67
2019-02-12T06:12:56.140Z,68.24
2019-02-12T06:15:25.512Z,68.02
2019-02-12T06:17:55.840Z,67.81
2019-02-12T06:20:25.093Z,67.49
2019-02-12T06:23:03.054Z,67.90
2019-02-12T06:25:23.896Z,67.97
2019-02-12T06:27:53.216Z,67.71
2019-02-12T06:30:23.228Z,67.58
2019-02-12T06:32:52.524Z,67.84
2019-02-12T06:35:21.812Z,67.34
2019-02-12T06:37:51.164Z,67.64
2019-02-12T06:40:20.496Z,67.92
2019-02-12T06:42:49.830Z,67.81
2019-02-12T06:45:19.171Z,67.86
2019-02-12T06:47:48.543Z,68.17
2019-02-12T06:50:17.924Z,68.27
2019-02-12T06:52:48.167Z,68.39
2019-02-12T06:55:17.512Z,68.34
2019-02-12T06:57:46.922Z,68.11
2019-02-12T07:00:17.097Z,68.60
2019-02-12T07:03:03.552Z,68.43
2019-02-12T07:05:41.744Z,68.52
2019-02-12T07:09:29.845Z,68.62
2019-02-12T07:13:18.321Z,68.52
2019-02-12T07:16:03.153Z,67.56
2019-02-12T07:19:01.509Z,68.10
2019-02-12T07:21:55.036Z,67.56
2019-02-12T07:24:48.348Z,67.48
2019-02-12T07:27:38.288Z,67.34
2019-02-12T07:31:23.756Z,66.90
2019-02-12T07:34:23.603Z,67.15
2019-02-12T07:37:09.980Z,67.10
2019-02-12T07:39:58.565Z,67.07
2019-02-12T07:42:57.353Z,66.66
2019-02-12T07:46:39.733Z,66.40
2019-02-12T07:49:30.519Z,66.70
2019-02-12T07:52:14.561Z,67.15
2019-02-12T07:54:57.446Z,66.42
2019-02-12T07:58:24.185Z,66.10
2019-02-12T08:01:04.111Z,66.94
2019-02-12T08:05:20.713Z,66.92
2019-02-12T08:08:15.462Z,66.28
2019-02-12T08:11:03.070Z,66.09
2019-02-12T08:15:49.466Z,66.08
2019-02-12T08:19:03.278Z,66.20
2019-02-12T08:21:52.655Z,66.46
2019-02-12T08:24:36.345Z,66.13
2019-02-12T08:29:38.777Z,66.43
2019-02-12T08:32:27.630Z,66.91
2019-02-12T08:37:46.075Z,67.39
2019-02-12T08:40:49.969Z,66.71
2019-02-12T08:43:37.603Z,66.34
2019-02-12T08:46:36.735Z,66.20
2019-02-12T08:49:25.599Z,65.38
2019-02-12T08:52:22.369Z,65.50
2019-02-12T08:56:12.017Z,65.43
2019-02-12T08:58:57.857Z,65.36
2019-02-12T09:01:43.845Z,65.32
2019-02-12T09:04:45.156Z,65.86
2019-02-12T09:07:26.412Z,65.53
2019-02-12T09:10:28.946Z,64.61
2019-02-12T09:13:59.886Z,63.96
2019-02-12T09:19:10.861Z,64.59
2019-02-12T09:24:08.415Z,63.85
2019-02-12T09:27:15.039Z,63.79
2019-02-12T09:30:02.432Z,63.43
2019-02-12T09:34:48.978Z,62.90
2019-02-12T09:37:35.326Z,62.96
2019-02-12T09:40:48.563Z,62.36
2019-02-12T09:43:38.405Z,62.62
2019-02-12T09:46:32.026Z,62.75
2019-02-12T09:49:41.770Z,62.07
2019-02-12T09:52:28.957Z,62.40
2019-02-12T09:55:12.911Z,62.45
2019-02-12T10:02:04.105Z,61.48
2019-02-12T10:05:01.905Z,62.38
2019-02-12T10:08:01.966Z,61.51
2019-02-12T10:13:12.737Z,61.20
2019-02-12T10:16:01.607Z,60.94
2019-02-12T10:19:04.302Z,60.33
2019-02-12T10:21:50.428Z,61.50
2019-02-12T10:24:36.227Z,60.90
2019-02-12T10:27:58.643Z,60.21
2019-02-12T10:30:42.474Z,60.49
2019-02-12T10:33:11.930Z,59.96
2019-02-12T10:35:41.369Z,60.11
2019-02-12T10:40:40.740Z,60.62
2019-02-12T10:43:10.096Z,60.26
2019-02-12T10:45:39.585Z,59.89
2019-02-12T10:48:09.007Z,59.76
2019-02-12T10:50:38.405Z,59.72
2019-02-12T10:53:08.947Z,59.20
2019-02-12T10:55:37.916Z,59.21
2019-02-12T10:58:08.593Z,60.26
2019-02-12T11:00:36.937Z,60.82
2019-02-12T11:03:13.021Z,61.04
2019-02-12T11:05:42.509Z,60.19
2019-02-12T11:08:11.948Z,60.07
2019-02-12T11:10:41.376Z,59.96
2019-02-12T11:13:10.932Z,60.37
2019-02-12T11:15:40.751Z,60.51
2019-02-12T11:18:10.278Z,60.41
2019-02-12T11:20:39.617Z,59.53
2019-02-12T11:23:10.962Z,59.88
2019-02-12T11:25:39.258Z,59.78
2019-02-12T11:28:08.636Z,59.45
2019-02-12T11:30:38.074Z,59.87
2019-02-12T11:33:07.515Z,59.91
2019-02-12T11:35:37.052Z,60.07
2019-02-12T11:38:06.436Z,59.21
2019-02-12T11:40:35.965Z,59.78
2019-02-12T11:43:05.517Z,59.54
2019-02-12T11:45:34.999Z,58.92
2019-02-12T11:48:04.396Z,58.68
2019-02-12T11:50:33.917Z,57.80
2019-02-12T11:53:03.361Z,58.61
2019-02-12T11:55:32.916Z,58.42
2019-02-12T11:58:02.308Z,57.65
2019-02-12T12:00:36.092Z,57.51
2019-02-12T12:03:05.512Z,57.35
2019-02-12T12:05:35.005Z,58.04
2019-02-12T12:08:04.530Z,57.31
2019-02-12T12:10:33.937Z,58.02
2019-02-12T12:13:03.312Z,57.69
2019-02-12T12:15:32.763Z,57.69
2019-02-12T12:18:02.232Z,57.46
2019-02-12T12:20:31.730Z,57.31
2019-02-12T12:23:01.136Z,57.82
2019-02-12T12:25:31.156Z,57.35
2019-02-12T12:28:00.594Z,57.91
2019-02-12T12:30:30.051Z,57.40
2019-02-12T12:32:59.516Z,56.78
2019-02-12T12:35:29.002Z,56.26
2019-02-12T12:37:58.394Z,54.72
2019-02-12T12:40:27.892Z,54.65
2019-02-12T12:42:57.305Z,54.94
2019-02-12T12:45:26.652Z,56.16
2019-02-12T12:47:56.073Z,56.17
2019-02-12T12:50:25.484Z,55.79
2019-02-12T12:52:55.001Z,54.03
2019-02-12T12:55:25.410Z,54.15
2019-02-12T12:57:53.885Z,53.84
2019-02-12T13:00:24.351Z,54.21
2019-02-12T13:02:53.972Z,53.72
2019-02-12T13:05:23.406Z,53.18
2019-02-12T13:07:52.941Z,53.97
2019-02-12T13:10:22.441Z,53.44
2019-02-12T13:12:51.815Z,53.27
2019-02-12T13:15:21.281Z,52.45
2019-02-12T13:17:50.828Z,52.09
2019-02-12T13:20:20.240Z,52.92
2019-02-12T13:22:49.679Z,53.01
2019-02-12T13:25:19.215Z,51.30
2019-02-12T13:27:48.669Z,50.43
2019-02-12T13:30:18.130Z,49.66
2019-02-12T13:32:47.573Z,49.90
2019-02-12T13:35:17.065Z,48.83
2019-02-12T13:37:46.601Z,48.73
2019-02-12T13:40:16.066Z,49.30
2019-02-12T13:42:47.226Z,48.31
2019-02-12T13:45:15.243Z,47.93
2019-02-12T13:47:44.709Z,48.56
2019-02-12T13:50:14.168Z,47.36
2019-02-12T13:52:43.582Z,48.37
2019-02-12T13:55:17.368Z,47.23
2019-02-12T13:57:42.667Z,47.61
2019-02-12T14:00:13.620Z,47.55
2019-02-12T14:02:43.080Z,47.88
2019-02-12T14:05:15.578Z,47.49
2019-02-12T14:07:45.011Z,47.64
2019-02-12T14:10:14.493Z,46.84
2019-02-12T14:12:43.972Z,47.04
2019-02-12T14:15:14.186Z,47.73
2019-02-12T14:17:43.622Z,48.41
2019-02-12T14:20:14.094Z,48.48
2019-02-12T14:22:43.566Z,47.51
2019-02-12T14:25:13.061Z,47.62
2019-02-12T14:27:42.533Z,46.82
2019-02-12T14:30:13.694Z,46.05
2019-02-12T14:32:43.097Z,46.39
2019-02-12T14:35:12.813Z,45.19
2019-02-12T14:37:42.268Z,45.46
2019-02-12T14:40:11.999Z,45.29
2019-02-12T14:42:41.500Z,45.02
2019-02-12T14:45:12.734Z,45.40
2019-02-12T14:47:42.168Z,46.64
2019-02-12T14:50:12.239Z,46.41
2019-02-12T14:52:41.677Z,46.35
2019-02-12T14:55:11.085Z,45.67
2019-02-12T14:57:40.522Z,46.71
2019-02-12T15:00:12.776Z,45.66
2019-02-12T15:02:42.133Z,46.17
2019-02-12T15:05:11.512Z,46.20
2019-02-12T15:07:40.973Z,46.69
2019-02-12T15:10:11.583Z,46.00
2019-02-12T15:12:41.032Z,46.41
2019-02-12T15:15:10.560Z,46.10
2019-02-12T15:17:39.990Z,47.03
2019-02-12T15:20:09.911Z,47.34
2019-02-12T15:22:39.550Z,47.08
2019-02-12T15:25:09.440Z,47.49
2019-02-12T15:27:39.059Z,46.67
2019-02-12T15:30:11.245Z,47.02
2019-02-12T15:32:40.818Z,46.62
2019-02-12T15:35:10.930Z,46.60
2019-02-12T15:37:41.169Z,45.63
2019-02-12T15:40:13.144Z,46.15
2019-02-12T15:42:42.660Z,46.26
2019-02-12T15:45:14.866Z,46.12
2019-02-12T15:47:44.483Z,46.32
2019-02-12T15:50:13.937Z,45.45
2019-02-12T15:52:43.415Z,46.05
2019-02-12T15:55:13.290Z,46.34
2019-02-12T15:57:45.594Z,46.98
2019-02-12T16:00:16.097Z,47.05
2019-02-12T16:02:44.841Z,47.17
2019-02-12T16:05:14.489Z,47.65
2019-02-12T16:07:45.173Z,46.87
2019-02-12T16:10:17.030Z,46.42
2019-02-12T16:12:46.527Z,46.73
2019-02-12T16:15:21.918Z,47.85
2019-02-12T16:17:48.994Z,48.14
2019-02-12T16:20:18.466Z,48.51
2019-02-12T16:22:48.425Z,48.94
2019-02-12T16:25:17.821Z,48.68
2019-02-12T16:27:47.282Z,48.30
2019-02-12T16:30:17.344Z,48.49
2019-02-12T16:32:46.790Z,49.41
2019-02-12T16:35:16.668Z,49.12
2019-02-12T16:37:48.514Z,49.59
2019-02-12T16:40:18.069Z,49.22
2019-02-12T16:43:50.137Z,49.10
2019-02-12T16:46:23.297Z,49.70
2019-02-12T16:48:51.793Z,48.94
2019-02-12T16:51:21.241Z,48.91
2019-02-12T16:53:50.738Z,49.78
2019-02-12T16:56:20.259Z,50.66
2019-02-12T16:58:49.676Z,50.61
2019-02-12T17:01:19.109Z,49.90
2019-02-12T17:03:48.610Z,49.53
2019-02-12T17:06:18.193Z,49.86
2019-02-12T17:08:47.716Z,50.59
2019-02-12T17:11:17.195Z,51.06
2019-02-12T17:13:46.681Z,50.63
2019-02-12T17:16:16.056Z,50.11
2019-02-12T17:18:45.633Z,50.74
2019-02-12T17:21:15.054Z,51.10
2019-02-12T17:23:44.447Z,50.71
2019-02-12T17:26:16.468Z,50.82
2019-02-12T17:28:43.333Z,50.69
2019-02-12T17:31:12.836Z,51.08
2019-02-12T17:33:42.293Z,51.09
2019-02-12T17:36:11.748Z,50.85
2019-02-12T17:38:41.276Z,51.16
2019-02-12T17:41:10.697Z,50.74
2019-02-12T17:43:40.127Z,50.91
2019-02-12T17:46:09.660Z,51.49
2019-02-12T17:48:39.117Z,51.88
2019-02-12T17:51:08.513Z,51.17
2019-02-12T17:53:37.817Z,51.32
2019-02-12T17:56:07.204Z,51.52
2019-02-12T17:58:36.564Z,51.68
2019-02-12T18:01:06.153Z,51.30
2019-02-12T18:03:35.639Z,51.79
2019-02-12T18:06:05.110Z,52.29
2019-02-12T18:08:34.550Z,51.89
2019-02-12T18:11:04.005Z,52.46
2019-02-12T18:13:34.153Z,53.29
2019-02-12T18:16:03.611Z,52.73
2019-02-12T18:18:33.105Z,52.74
2019-02-12T18:21:02.540Z,52.16
2019-02-12T18:23:31.898Z,52.10
2019-02-12T18:26:01.229Z,52.76
2019-02-12T18:28:30.592Z,52.30
2019-02-12T18:31:00.028Z,52.40
2019-02-12T18:33:29.384Z,52.47
2019-02-12T18:35:58.845Z,52.92
2019-02-12T18:38:28.321Z,52.74
2019-02-12T18:40:57.712Z,52.78
2019-02-12T18:43:27.083Z,52.98
2019-02-12T18:45:56.489Z,52.54
2019-02-12T18:48:25.877Z,52.76
2019-02-12T18:50:55.262Z,53.42
2019-02-12T18:53:24.857Z,52.96
2019-02-12T18:55:54.314Z,53.36
2019-02-12T18:58:23.717Z,53.55
2019-02-12T19:00:53.091Z,54.16
2019-02-12T19:03:22.489Z,53.91
2019-02-12T19:05:51.941Z,54.47
2019-02-12T19:08:21.379Z,54.40
2019-02-12T19:10:50.796Z,54.86
2019-02-12T19:13:20.197Z,54.81
2019-02-12T19:15:49.688Z,54.37
2019-02-12T19:18:23.657Z,54.82
2019-02-12T19:20:53.064Z,55.38
2019-02-12T19:23:22.521Z,55.05
2019-02-12T19:25:51.985Z,55.51
2019-02-12T19:28:21.345Z,54.87
2019-02-12T19:30:50.832Z,55.16
2019-02-12T19:33:20.345Z,54.60
2019-02-12T19:35:49.767Z,54.78
2019-02-12T19:38:19.177Z,55.24
2019-02-12T19:40:48.633Z,55.26
2019-02-12T19:43:18.020Z,55.44
2019-02-12T19:45:47.442Z,55.29
2019-02-12T19:48:16.991Z,55.34
2019-02-12T19:50:46.488Z,55.48
2019-02-12T19:53:15.932Z,55.65
2019-02-12T19:55:45.309Z,55.56
2019-02-12T19:58:14.720Z,55.16
2019-02-12T20:00:44.148Z,55.48
2019-02-12T20:03:13.586Z,55.55
2019-02-12T20:05:42.940Z,55.65
2019-02-12T20:08:12.397Z,55.83
2019-02-12T20:10:41.760Z,55.42
2019-02-12T20:13:11.193Z,55.71
2019-02-12T20:15:40.511Z,55.83
2019-02-12T20:18:09.949Z,56.23
2019-02-12T20:20:39.409Z,56.34
2019-02-12T20:23:08.799Z,56.17
2019-02-12T20:25:38.173Z,56.46
2019-02-12T20:28:07.565Z,56.38
2019-02-12T20:30:36.996Z,56.48
2019-02-12T20:33:06.419Z,56.24
2019-02-12T20:35:36.599Z,56.69
2019-02-12T20:38:05.205Z,56.99
2019-02-12T20:40:34.564Z,57.18
2019-02-12T20:43:03.973Z,57.03
2019-02-12T20:45:33.445Z,57.05
2019-02-12T20:48:02.838Z,57.42
2019-02-12T20:50:32.140Z,57.52
2019-02-12T20:53:01.496Z,57.58
2019-02-12T20:55:30.900Z,58.10
2019-02-12T20:58:00.232Z,58.33
2019-02-12T21:00:29.601Z,58.31
2019-02-12T21:02:58.952Z,58.59
2019-02-12T21:05:28.316Z,58.77
2019-02-12T21:07:57.732Z,58.89
2019-02-12T21:10:27.109Z,58.90
2019-02-12T21:12:56.460Z,58.81
2019-02-12T21:15:26.001Z,58.81
2019-02-12T21:17:55.360Z,59.45
2019-02-12T21:20:25.842Z,59.27
2019-02-12T21:22:55.320Z,59.21
2019-02-12T21:25:25.470Z,59.43
2019-02-12T21:27:54.956Z,59.62
2019-02-12T21:30:24.658Z,59.55
2019-02-12T21:32:54.047Z,59.57
2019-02-12T21:35:23.507Z,59.85
2019-02-12T21:37:52.974Z,60.04
2019-02-12T21:40:23.055Z,59.94
2019-02-12T21:42:52.585Z,59.40
2019-02-12T21:45:22.020Z,60.04
2019-02-12T21:47:51.470Z,59.91
2019-02-12T21:50:20.901Z,60.03
2019-02-12T21:52:50.446Z,60.05
2019-02-12T21:55:19.912Z,60.52
2019-02-12T21:57:49.362Z,60.05
2019-02-12T22:00:19.289Z,60.61
2019-02-12T22:02:48.670Z,60.40
2019-02-12T22:05:18.097Z,60.33
2019-02-12T22:07:47.580Z,60.43
2019-02-12T22:10:18.646Z,60.65
2019-02-12T22:12:48.100Z,60.29
2019-02-12T22:15:17.652Z,60.39
2019-02-12T22:17:47.040Z,61.35
2019-02-12T22:20:17.188Z,61.45
2019-02-12T22:22:46.636Z,60.99
2019-02-12T22:25:16.275Z,60.78
2019-02-12T22:27:46.892Z,61.16
2019-02-12T22:30:19.367Z,61.11
2019-02-12T22:32:48.806Z,61.47
2019-02-12T22:35:18.237Z,61.29
2019-02-12T22:37:47.616Z,61.63
2019-02-12T22:40:17.033Z,61.82
2019-02-12T22:42:46.444Z,62.16
2019-02-12T22:45:17.924Z,62.19
2019-02-12T22:47:47.367Z,62.17
2019-02-12T22:50:16.697Z,62.25
2019-02-12T22:52:46.147Z,62.38
2019-02-12T22:55:15.515Z,62.14
2019-02-12T22:57:49.255Z,62.36
2019-02-12T23:00:34.276Z,62.37
2019-02-12T23:03:03.628Z,62.78
2019-02-12T23:05:33.104Z,62.57
2019-02-12T23:08:02.483Z,62.79
2019-02-12T23:10:31.854Z,63.11
2019-02-12T23:13:01.228Z,63.17
2019-02-12T23:15:30.555Z,62.79
2019-02-12T23:18:00.050Z,63.44
2019-02-12T23:20:29.385Z,63.19
2019-02-12T23:22:59.167Z,63.32
2019-02-12T23:25:28.469Z,63.57
2019-02-12T23:27:57.921Z,63.77
2019-02-12T23:30:27.548Z,63.62
2019-02-12T23:32:57.024Z,63.45
2019-02-12T23:35:26.682Z,64.12
2019-02-12T23:37:56.154Z,63.80
2019-02-12T23:40:25.665Z,63.77
2019-02-12T23:42:55.092Z,63.34
2019-02-12T23:45:24.497Z,63.80
2019-02-12T23:47:53.899Z,64.44
2019-02-12T23:50:23.366Z,64.52
2019-02-12T23:52:52.784Z,64.45
2019-02-12T23:55:22.207Z,64.26
2019-02-12T23:57:51.595Z,63.83
